Terminal Aerodrome Forecast
Issued by NWS

Home | Current Version | Previous Version | Text Only | Print | Product List | Glossary On
Versions: 1 2 3 4 5 6 7 8 9 10 11 12 13 14 15 16 17 18 19 20 21 22 23 24 25
000
FTUS44 KOUN 310527
TAFGAG
TAF
KGAG 310527Z 3106/0106 11007KT P6SM SCT120 BKN250
     FM310900 14007KT P6SM SCT025 OVC100
      TEMPO 3109/3113 BKN025
     FM311800 01007KT P6SM SCT040 BKN120 BKN200 PROB30 3118/3122 5SM
      -TSRA BKN040CB=

USA.gov is the U.S. government's official web portal to all federal, state and local government web resources and services.